sensor_id;sensor_type;location;lat;lon;timestamp;P1;durP1;ratioP1;P2;durP2;ratioP2
51927;SDS011;37953;52.806;18.270;2023-04-24T00:01:31;22.52;;;8.77;;
51927;SDS011;37953;52.806;18.270;2023-04-24T00:03:57;24.00;;;8.25;;
51927;SDS011;37953;52.806;18.270;2023-04-24T00:06:27;23.95;;;8.65;;
51927;SDS011;37953;52.806;18.270;2023-04-24T00:08:59;19.45;;;8.40;;
51927;SDS011;37953;52.806;18.270;2023-04-24T00:11:26;20.88;;;7.80;;
51927;SDS011;37953;52.806;18.270;2023-04-24T00:13:52;24.63;;;8.50;;
51927;SDS011;37953;52.806;18.270;2023-04-24T00:16:21;18.98;;;7.57;;
51927;SDS011;37953;52.806;18.270;2023-04-24T00:18:48;17.50;;;7.85;;
51927;SDS011;37953;52.806;18.270;2023-04-24T00:21:15;17.45;;;7.57;;
51927;SDS011;37953;52.806;18.270;2023-04-24T00:23:43;19.15;;;8.13;;
51927;SDS011;37953;52.806;18.270;2023-04-24T00:26:10;11.18;;;6.97;;
51927;SDS011;37953;52.806;18.270;2023-04-24T00:28:35;10.77;;;6.78;;
51927;SDS011;37953;52.806;18.270;2023-04-24T00:31:01;14.52;;;7.32;;
51927;SDS011;37953;52.806;18.270;2023-04-24T00:33:27;13.63;;;7.22;;
51927;SDS011;37953;52.806;18.270;2023-04-24T00:35:54;13.73;;;7.50;;
51927;SDS011;37953;52.806;18.270;2023-04-24T00:38:19;13.20;;;7.68;;
51927;SDS011;37953;52.806;18.270;2023-04-24T00:40:45;16.17;;;8.32;;
51927;SDS011;37953;52.806;18.270;2023-04-24T00:43:12;23.77;;;8.38;;
51927;SDS011;37953;52.806;18.270;2023-04-24T00:45:38;14.55;;;7.35;;
51927;SDS011;37953;52.806;18.270;2023-04-24T00:48:05;16.25;;;7.65;;
51927;SDS011;37953;52.806;18.270;2023-04-24T00:50:31;17.05;;;8.27;;
51927;SDS011;37953;52.806;18.270;2023-04-24T00:52:56;14.60;;;7.85;;
51927;SDS011;37953;52.806;18.270;2023-04-24T00:55:23;20.15;;;7.53;;
51927;SDS011;37953;52.806;18.270;2023-04-24T00:57:50;20.10;;;7.95;;
51927;SDS011;37953;52.806;18.270;2023-04-24T01:00:16;22.48;;;8.18;;
51927;SDS011;37953;52.806;18.270;2023-04-24T01:02:45;26.00;;;8.13;;
51927;SDS011;37953;52.806;18.270;2023-04-24T01:05:12;27.48;;;8.27;;
51927;SDS011;37953;52.806;18.270;2023-04-24T01:07:39;21.55;;;8.02;;
51927;SDS011;37953;52.806;18.270;2023-04-24T01:10:09;24.60;;;8.27;;
51927;SDS011;37953;52.806;18.270;2023-04-24T01:12:35;20.55;;;8.07;;
51927;SDS011;37953;52.806;18.270;2023-04-24T01:15:02;23.08;;;8.48;;
51927;SDS011;37953;52.806;18.270;2023-04-24T01:17:29;27.13;;;8.50;;
51927;SDS011;37953;52.806;18.270;2023-04-24T01:19:55;21.48;;;8.23;;
51927;SDS011;37953;52.806;18.270;2023-04-24T01:22:25;17.77;;;8.70;;
51927;SDS011;37953;52.806;18.270;2023-04-24T01:24:53;20.17;;;8.80;;
51927;SDS011;37953;52.806;18.270;2023-04-24T01:27:25;13.63;;;8.68;;
51927;SDS011;37953;52.806;18.270;2023-04-24T01:29:51;18.80;;;9.07;;
51927;SDS011;37953;52.806;18.270;2023-04-24T01:32:17;18.00;;;8.80;;
51927;SDS011;37953;52.806;18.270;2023-04-24T01:34:44;17.13;;;8.77;;
51927;SDS011;37953;52.806;18.270;2023-04-24T01:37:11;14.63;;;8.80;;
51927;SDS011;37953;52.806;18.270;2023-04-24T01:39:37;14.18;;;9.00;;
51927;SDS011;37953;52.806;18.270;2023-04-24T01:42:04;14.93;;;8.40;;
51927;SDS011;37953;52.806;18.270;2023-04-24T01:44:30;15.68;;;8.90;;
51927;SDS011;37953;52.806;18.270;2023-04-24T01:46:56;14.27;;;8.38;;
51927;SDS011;37953;52.806;18.270;2023-04-24T01:49:22;15.20;;;8.38;;
51927;SDS011;37953;52.806;18.270;2023-04-24T01:51:48;15.38;;;8.10;;
51927;SDS011;37953;52.806;18.270;2023-04-24T01:54:14;17.25;;;8.20;;
51927;SDS011;37953;52.806;18.270;2023-04-24T01:56:40;16.98;;;8.45;;
51927;SDS011;37953;52.806;18.270;2023-04-24T01:59:09;18.15;;;8.13;;
51927;SDS011;37953;52.806;18.270;2023-04-24T02:01:36;17.30;;;8.95;;
51927;SDS011;37953;52.806;18.270;2023-04-24T02:04:04;23.33;;;8.77;;
51927;SDS011;37953;52.806;18.270;2023-04-24T02:06:31;16.75;;;8.55;;
51927;SDS011;37953;52.806;18.270;2023-04-24T02:08:58;23.67;;;8.82;;
51927;SDS011;37953;52.806;18.270;2023-04-24T02:11:24;23.10;;;8.27;;
51927;SDS011;37953;52.806;18.270;2023-04-24T02:13:51;19.85;;;8.95;;
51927;SDS011;37953;52.806;18.270;2023-04-24T02:16:17;15.27;;;8.63;;
51927;SDS011;37953;52.806;18.270;2023-04-24T02:18:43;15.23;;;8.40;;
51927;SDS011;37953;52.806;18.270;2023-04-24T02:21:09;15.68;;;8.57;;
51927;SDS011;37953;52.806;18.270;2023-04-24T02:23:36;14.30;;;8.43;;
51927;SDS011;37953;52.806;18.270;2023-04-24T02:26:01;16.75;;;8.13;;
51927;SDS011;37953;52.806;18.270;2023-04-24T02:28:27;15.90;;;8.43;;
51927;SDS011;37953;52.806;18.270;2023-04-24T02:30:53;19.60;;;8.15;;
51927;SDS011;37953;52.806;18.270;2023-04-24T02:33:19;17.40;;;9.00;;
51927;SDS011;37953;52.806;18.270;2023-04-24T02:35:45;17.70;;;8.15;;
51927;SDS011;37953;52.806;18.270;2023-04-24T02:38:11;22.75;;;8.75;;
51927;SDS011;37953;52.806;18.270;2023-04-24T02:40:37;13.10;;;7.57;;
51927;SDS011;37953;52.806;18.270;2023-04-24T02:43:03;17.73;;;8.25;;
51927;SDS011;37953;52.806;18.270;2023-04-24T02:45:29;18.83;;;8.00;;
51927;SDS011;37953;52.806;18.270;2023-04-24T02:47:55;18.80;;;8.10;;
51927;SDS011;37953;52.806;18.270;2023-04-24T02:50:21;23.02;;;8.35;;
51927;SDS011;37953;52.806;18.270;2023-04-24T02:52:47;13.80;;;7.57;;
51927;SDS011;37953;52.806;18.270;2023-04-24T02:55:13;16.50;;;8.43;;
51927;SDS011;37953;52.806;18.270;2023-04-24T02:57:39;18.58;;;8.60;;
51927;SDS011;37953;52.806;18.270;2023-04-24T03:00:05;13.65;;;8.60;;
51927;SDS011;37953;52.806;18.270;2023-04-24T03:02:32;14.50;;;7.85;;
51927;SDS011;37953;52.806;18.270;2023-04-24T03:05:04;12.90;;;8.02;;
51927;SDS011;37953;52.806;18.270;2023-04-24T03:07:31;14.60;;;8.50;;
51927;SDS011;37953;52.806;18.270;2023-04-24T03:09:57;17.83;;;8.95;;
51927;SDS011;37953;52.806;18.270;2023-04-24T03:12:24;19.13;;;9.27;;
51927;SDS011;37953;52.806;18.270;2023-04-24T03:14:50;15.95;;;9.52;;
51927;SDS011;37953;52.806;18.270;2023-04-24T03:17:16;17.13;;;9.15;;
51927;SDS011;37953;52.806;18.270;2023-04-24T03:19:42;21.20;;;9.55;;
51927;SDS011;37953;52.806;18.270;2023-04-24T03:22:08;17.25;;;9.80;;
51927;SDS011;37953;52.806;18.270;2023-04-24T03:24:34;18.67;;;9.35;;
51927;SDS011;37953;52.806;18.270;2023-04-24T03:27:01;15.57;;;8.70;;
51927;SDS011;37953;52.806;18.270;2023-04-24T03:29:26;16.88;;;8.80;;
51927;SDS011;37953;52.806;18.270;2023-04-24T03:31:52;17.27;;;8.70;;
51927;SDS011;37953;52.806;18.270;2023-04-24T03:34:18;13.27;;;8.20;;
51927;SDS011;37953;52.806;18.270;2023-04-24T03:36:44;20.40;;;9.00;;
51927;SDS011;37953;52.806;18.270;2023-04-24T03:39:13;13.48;;;8.68;;
51927;SDS011;37953;52.806;18.270;2023-04-24T03:41:39;16.88;;;7.88;;
51927;SDS011;37953;52.806;18.270;2023-04-24T03:44:05;15.65;;;8.02;;
51927;SDS011;37953;52.806;18.270;2023-04-24T03:46:37;13.65;;;7.60;;
51927;SDS011;37953;52.806;18.270;2023-04-24T03:49:03;15.50;;;8.13;;
51927;SDS011;37953;52.806;18.270;2023-04-24T03:51:29;15.18;;;7.80;;
51927;SDS011;37953;52.806;18.270;2023-04-24T03:53:56;16.05;;;8.68;;
51927;SDS011;37953;52.806;18.270;2023-04-24T03:56:22;19.27;;;8.55;;
51927;SDS011;37953;52.806;18.270;2023-04-24T03:58:48;19.35;;;8.20;;
51927;SDS011;37953;52.806;18.270;2023-04-24T04:01:14;23.50;;;9.10;;
51927;SDS011;37953;52.806;18.270;2023-04-24T04:03:41;19.50;;;8.80;;
51927;SDS011;37953;52.806;18.270;2023-04-24T04:06:07;30.25;;;8.90;;
51927;SDS011;37953;52.806;18.270;2023-04-24T04:08:33;29.83;;;10.25;;
51927;SDS011;37953;52.806;18.270;2023-04-24T04:10:59;21.77;;;8.50;;
51927;SDS011;37953;52.806;18.270;2023-04-24T04:13:25;24.75;;;8.88;;
51927;SDS011;37953;52.806;18.270;2023-04-24T04:15:51;31.02;;;9.65;;
51927;SDS011;37953;52.806;18.270;2023-04-24T04:18:16;21.42;;;8.50;;
51927;SDS011;37953;52.806;18.270;2023-04-24T04:20:42;20.17;;;8.57;;
51927;SDS011;37953;52.806;18.270;2023-04-24T04:23:08;20.95;;;8.90;;
51927;SDS011;37953;52.806;18.270;2023-04-24T04:25:34;25.73;;;10.10;;
51927;SDS011;37953;52.806;18.270;2023-04-24T04:28:00;34.50;;;11.60;;
51927;SDS011;37953;52.806;18.270;2023-04-24T04:30:27;27.05;;;14.20;;
51927;SDS011;37953;52.806;18.270;2023-04-24T04:32:54;30.35;;;14.07;;
51927;SDS011;37953;52.806;18.270;2023-04-24T04:35:20;39.38;;;14.95;;
51927;SDS011;37953;52.806;18.270;2023-04-24T04:37:46;27.23;;;12.43;;
51927;SDS011;37953;52.806;18.270;2023-04-24T04:40:12;22.98;;;9.70;;
51927;SDS011;37953;52.806;18.270;2023-04-24T04:42:38;26.70;;;9.52;;
51927;SDS011;37953;52.806;18.270;2023-04-24T04:45:09;22.02;;;8.77;;
51927;SDS011;37953;52.806;18.270;2023-04-24T04:47:36;21.30;;;8.70;;
51927;SDS011;37953;52.806;18.270;2023-04-24T04:50:02;28.55;;;9.30;;
51927;SDS011;37953;52.806;18.270;2023-04-24T04:52:29;21.25;;;8.25;;
51927;SDS011;37953;52.806;18.270;2023-04-24T04:54:55;18.35;;;8.65;;
51927;SDS011;37953;52.806;18.270;2023-04-24T04:57:21;20.27;;;9.07;;
51927;SDS011;37953;52.806;18.270;2023-04-24T04:59:47;21.20;;;8.43;;
51927;SDS011;37953;52.806;18.270;2023-04-24T05:02:13;21.45;;;8.50;;
51927;SDS011;37953;52.806;18.270;2023-04-24T05:04:39;24.35;;;8.25;;
51927;SDS011;37953;52.806;18.270;2023-04-24T05:07:05;19.85;;;8.68;;
51927;SDS011;37953;52.806;18.270;2023-04-24T05:09:31;24.90;;;9.00;;
51927;SDS011;37953;52.806;18.270;2023-04-24T05:11:57;20.92;;;8.45;;
51927;SDS011;37953;52.806;18.270;2023-04-24T05:14:23;24.60;;;8.45;;
51927;SDS011;37953;52.806;18.270;2023-04-24T05:16:49;26.02;;;8.95;;
51927;SDS011;37953;52.806;18.270;2023-04-24T05:19:15;25.80;;;9.20;;
51927;SDS011;37953;52.806;18.270;2023-04-24T05:21:41;25.38;;;9.25;;
51927;SDS011;37953;52.806;18.270;2023-04-24T05:24:07;21.60;;;8.88;;
51927;SDS011;37953;52.806;18.270;2023-04-24T05:26:33;29.50;;;10.00;;
51927;SDS011;37953;52.806;18.270;2023-04-24T05:28:59;25.88;;;9.32;;
51927;SDS011;37953;52.806;18.270;2023-04-24T05:31:25;19.67;;;8.02;;
51927;SDS011;37953;52.806;18.270;2023-04-24T05:33:51;18.48;;;8.85;;
51927;SDS011;37953;52.806;18.270;2023-04-24T05:36:17;24.63;;;9.02;;
51927;SDS011;37953;52.806;18.270;2023-04-24T05:38:43;26.45;;;8.88;;
51927;SDS011;37953;52.806;18.270;2023-04-24T05:41:09;29.80;;;8.88;;
51927;SDS011;37953;52.806;18.270;2023-04-24T05:43:35;23.45;;;8.65;;
51927;SDS011;37953;52.806;18.270;2023-04-24T05:46:01;22.83;;;8.73;;
51927;SDS011;37953;52.806;18.270;2023-04-24T05:48:27;21.77;;;8.93;;
51927;SDS011;37953;52.806;18.270;2023-04-24T05:50:53;21.02;;;8.32;;
51927;SDS011;37953;52.806;18.270;2023-04-24T05:53:19;25.17;;;9.68;;
51927;SDS011;37953;52.806;18.270;2023-04-24T05:55:45;21.10;;;8.73;;
51927;SDS011;37953;52.806;18.270;2023-04-24T05:58:11;21.15;;;8.98;;
51927;SDS011;37953;52.806;18.270;2023-04-24T06:00:37;19.52;;;9.20;;
51927;SDS011;37953;52.806;18.270;2023-04-24T06:03:05;27.17;;;9.50;;
51927;SDS011;37953;52.806;18.270;2023-04-24T06:05:31;20.05;;;8.80;;
51927;SDS011;37953;52.806;18.270;2023-04-24T06:07:57;21.65;;;9.00;;
51927;SDS011;37953;52.806;18.270;2023-04-24T06:10:23;25.33;;;9.00;;
51927;SDS011;37953;52.806;18.270;2023-04-24T06:12:49;21.45;;;8.77;;
51927;SDS011;37953;52.806;18.270;2023-04-24T06:15:15;23.50;;;8.35;;
51927;SDS011;37953;52.806;18.270;2023-04-24T06:17:41;28.73;;;8.80;;
51927;SDS011;37953;52.806;18.270;2023-04-24T06:20:07;19.42;;;8.30;;
51927;SDS011;37953;52.806;18.270;2023-04-24T06:22:33;22.13;;;9.25;;
51927;SDS011;37953;52.806;18.270;2023-04-24T06:25:00;22.20;;;8.85;;
51927;SDS011;37953;52.806;18.270;2023-04-24T06:27:27;25.35;;;8.82;;
51927;SDS011;37953;52.806;18.270;2023-04-24T06:29:52;26.92;;;8.75;;
51927;SDS011;37953;52.806;18.270;2023-04-24T06:32:21;17.30;;;8.45;;
51927;SDS011;37953;52.806;18.270;2023-04-24T06:34:52;28.80;;;8.67;;
51927;SDS011;37953;52.806;18.270;2023-04-24T06:37:19;23.83;;;8.57;;
51927;SDS011;37953;52.806;18.270;2023-04-24T06:39:46;25.48;;;7.93;;
51927;SDS011;37953;52.806;18.270;2023-04-24T06:42:12;20.42;;;8.02;;
51927;SDS011;37953;52.806;18.270;2023-04-24T06:44:38;20.58;;;8.40;;
51927;SDS011;37953;52.806;18.270;2023-04-24T06:47:09;20.77;;;8.27;;
51927;SDS011;37953;52.806;18.270;2023-04-24T06:49:36;20.17;;;8.20;;
51927;SDS011;37953;52.806;18.270;2023-04-24T06:52:09;21.73;;;7.93;;
51927;SDS011;37953;52.806;18.270;2023-04-24T06:54:35;18.67;;;7.28;;
51927;SDS011;37953;52.806;18.270;2023-04-24T06:57:01;19.77;;;7.28;;
51927;SDS011;37953;52.806;18.270;2023-04-24T06:59:28;22.83;;;7.75;;
51927;SDS011;37953;52.806;18.270;2023-04-24T07:01:54;20.42;;;7.40;;
51927;SDS011;37953;52.806;18.270;2023-04-24T07:04:20;19.92;;;8.20;;
51927;SDS011;37953;52.806;18.270;2023-04-24T07:06:47;23.08;;;8.10;;
51927;SDS011;37953;52.806;18.270;2023-04-24T07:09:14;19.73;;;7.65;;
51927;SDS011;37953;52.806;18.270;2023-04-24T07:11:44;22.30;;;8.25;;
51927;SDS011;37953;52.806;18.270;2023-04-24T07:14:10;20.38;;;7.82;;
51927;SDS011;37953;52.806;18.270;2023-04-24T07:16:37;47.40;;;26.63;;
51927;SDS011;37953;52.806;18.270;2023-04-24T07:19:04;69.93;;;38.78;;
51927;SDS011;37953;52.806;18.270;2023-04-24T07:21:30;63.45;;;34.42;;
51927;SDS011;37953;52.806;18.270;2023-04-24T07:23:59;41.47;;;23.05;;
51927;SDS011;37953;52.806;18.270;2023-04-24T07:26:26;28.33;;;12.50;;
51927;SDS011;37953;52.806;18.270;2023-04-24T07:28:56;25.17;;;10.18;;
51927;SDS011;37953;52.806;18.270;2023-04-24T07:31:22;18.35;;;9.25;;
51927;SDS011;37953;52.806;18.270;2023-04-24T07:33:48;24.23;;;9.10;;
51927;SDS011;37953;52.806;18.270;2023-04-24T07:36:15;15.88;;;8.60;;
51927;SDS011;37953;52.806;18.270;2023-04-24T07:38:46;30.02;;;9.55;;
51927;SDS011;37953;52.806;18.270;2023-04-24T07:41:13;25.00;;;9.23;;
51927;SDS011;37953;52.806;18.270;2023-04-24T07:43:46;27.98;;;9.80;;
51927;SDS011;37953;52.806;18.270;2023-04-24T07:46:12;21.70;;;9.70;;
51927;SDS011;37953;52.806;18.270;2023-04-24T07:48:38;15.40;;;8.85;;
51927;SDS011;37953;52.806;18.270;2023-04-24T07:51:05;18.38;;;8.15;;
51927;SDS011;37953;52.806;18.270;2023-04-24T07:53:30;16.35;;;7.80;;
51927;SDS011;37953;52.806;18.270;2023-04-24T07:55:57;19.98;;;7.72;;
51927;SDS011;37953;52.806;18.270;2023-04-24T07:58:23;23.25;;;8.73;;
51927;SDS011;37953;52.806;18.270;2023-04-24T08:00:49;20.50;;;7.57;;
51927;SDS011;37953;52.806;18.270;2023-04-24T08:03:15;19.52;;;6.45;;
51927;SDS011;37953;52.806;18.270;2023-04-24T08:05:44;21.63;;;6.20;;
51927;SDS011;37953;52.806;18.270;2023-04-24T08:08:10;19.67;;;6.57;;
51927;SDS011;37953;52.806;18.270;2023-04-24T08:10:36;17.27;;;5.57;;
51927;SDS011;37953;52.806;18.270;2023-04-24T08:13:02;18.42;;;5.75;;
51927;SDS011;37953;52.806;18.270;2023-04-24T08:15:28;17.63;;;5.75;;
51927;SDS011;37953;52.806;18.270;2023-04-24T08:17:54;18.42;;;6.45;;
51927;SDS011;37953;52.806;18.270;2023-04-24T08:20:20;24.27;;;6.72;;
51927;SDS011;37953;52.806;18.270;2023-04-24T08:22:46;17.27;;;6.20;;
51927;SDS011;37953;52.806;18.270;2023-04-24T08:25:15;16.02;;;5.22;;
51927;SDS011;37953;52.806;18.270;2023-04-24T08:27:41;17.35;;;5.55;;
51927;SDS011;37953;52.806;18.270;2023-04-24T08:30:07;17.63;;;5.07;;
51927;SDS011;37953;52.806;18.270;2023-04-24T08:32:33;16.73;;;5.10;;
51927;SDS011;37953;52.806;18.270;2023-04-24T08:34:59;12.82;;;4.47;;
51927;SDS011;37953;52.806;18.270;2023-04-24T08:37:26;11.82;;;4.43;;
51927;SDS011;37953;52.806;18.270;2023-04-24T08:39:52;14.85;;;4.70;;
51927;SDS011;37953;52.806;18.270;2023-04-24T08:42:24;11.27;;;4.35;;
51927;SDS011;37953;52.806;18.270;2023-04-24T08:44:54;13.87;;;4.93;;
51927;SDS011;37953;52.806;18.270;2023-04-24T08:47:23;12.00;;;4.90;;
51927;SDS011;37953;52.806;18.270;2023-04-24T08:49:51;17.35;;;4.60;;
51927;SDS011;37953;52.806;18.270;2023-04-24T08:52:17;10.73;;;4.40;;
51927;SDS011;37953;52.806;18.270;2023-04-24T08:54:44;16.27;;;4.60;;
51927;SDS011;37953;52.806;18.270;2023-04-24T08:57:12;12.75;;;4.43;;
51927;SDS011;37953;52.806;18.270;2023-04-24T08:59:40;20.27;;;6.10;;
51927;SDS011;37953;52.806;18.270;2023-04-24T09:02:09;21.10;;;6.05;;
51927;SDS011;37953;52.806;18.270;2023-04-24T09:04:37;16.15;;;5.55;;
51927;SDS011;37953;52.806;18.270;2023-04-24T09:07:03;16.27;;;5.45;;
51927;SDS011;37953;52.806;18.270;2023-04-24T09:09:36;20.10;;;5.43;;
51927;SDS011;37953;52.806;18.270;2023-04-24T09:12:04;21.77;;;5.70;;
51927;SDS011;37953;52.806;18.270;2023-04-24T09:14:30;13.02;;;5.22;;
51927;SDS011;37953;52.806;18.270;2023-04-24T09:16:57;18.95;;;5.38;;
51927;SDS011;37953;52.806;18.270;2023-04-24T09:19:23;14.65;;;5.25;;
51927;SDS011;37953;52.806;18.270;2023-04-24T09:22:05;17.55;;;5.22;;
51927;SDS011;37953;52.806;18.270;2023-04-24T09:24:33;13.07;;;5.40;;
51927;SDS011;37953;52.806;18.270;2023-04-24T09:27:00;13.02;;;5.53;;
51927;SDS011;37953;52.806;18.270;2023-04-24T09:29:29;15.38;;;6.13;;
51927;SDS011;37953;52.806;18.270;2023-04-24T09:31:55;18.80;;;6.57;;
51927;SDS011;37953;52.806;18.270;2023-04-24T09:34:22;12.65;;;6.10;;
51927;SDS011;37953;52.806;18.270;2023-04-24T09:36:49;16.88;;;6.18;;
51927;SDS011;37953;52.806;18.270;2023-04-24T09:39:16;17.90;;;6.57;;
51927;SDS011;37953;52.806;18.270;2023-04-24T09:41:52;18.02;;;6.93;;
51927;SDS011;37953;52.806;18.270;2023-04-24T09:44:26;12.00;;;6.18;;
51927;SDS011;37953;52.806;18.270;2023-04-24T09:46:54;25.60;;;7.00;;
51927;SDS011;37953;52.806;18.270;2023-04-24T09:49:23;22.98;;;7.95;;
51927;SDS011;37953;52.806;18.270;2023-04-24T09:52:16;16.40;;;8.00;;
51927;SDS011;37953;52.806;18.270;2023-04-24T09:54:42;19.20;;;7.55;;
51927;SDS011;37953;52.806;18.270;2023-04-24T09:57:28;17.90;;;6.97;;
51927;SDS011;37953;52.806;18.270;2023-04-24T09:59:54;12.95;;;5.90;;
51927;SDS011;37953;52.806;18.270;2023-04-24T10:02:20;18.92;;;6.63;;
51927;SDS011;37953;52.806;18.270;2023-04-24T10:04:54;15.48;;;6.22;;
51927;SDS011;37953;52.806;18.270;2023-04-24T10:07:21;12.50;;;5.93;;
51927;SDS011;37953;52.806;18.270;2023-04-24T10:09:51;18.67;;;6.25;;
51927;SDS011;37953;52.806;18.270;2023-04-24T10:12:17;16.25;;;6.40;;
51927;SDS011;37953;52.806;18.270;2023-04-24T10:14:45;21.75;;;7.25;;
51927;SDS011;37953;52.806;18.270;2023-04-24T10:17:11;18.50;;;7.00;;
51927;SDS011;37953;52.806;18.270;2023-04-24T10:19:39;16.30;;;6.90;;
51927;SDS011;37953;52.806;18.270;2023-04-24T10:22:06;22.08;;;7.22;;
51927;SDS011;37953;52.806;18.270;2023-04-24T10:24:33;18.42;;;7.32;;
51927;SDS011;37953;52.806;18.270;2023-04-24T10:27:00;18.67;;;8.43;;
51927;SDS011;37953;52.806;18.270;2023-04-24T10:29:27;26.05;;;9.35;;
51927;SDS011;37953;52.806;18.270;2023-04-24T10:31:56;21.35;;;8.65;;
51927;SDS011;37953;52.806;18.270;2023-04-24T10:34:23;21.05;;;8.45;;
51927;SDS011;37953;52.806;18.270;2023-04-24T10:36:53;28.10;;;8.60;;
51927;SDS011;37953;52.806;18.270;2023-04-24T10:39:24;20.50;;;8.15;;
51927;SDS011;37953;52.806;18.270;2023-04-24T10:41:51;16.90;;;7.47;;
51927;SDS011;37953;52.806;18.270;2023-04-24T10:44:17;18.75;;;7.30;;
51927;SDS011;37953;52.806;18.270;2023-04-24T10:46:43;14.85;;;6.43;;
51927;SDS011;37953;52.806;18.270;2023-04-24T10:49:17;19.90;;;7.00;;
51927;SDS011;37953;52.806;18.270;2023-04-24T10:51:53;19.85;;;6.85;;
51927;SDS011;37953;52.806;18.270;2023-04-24T10:54:28;16.95;;;6.55;;
51927;SDS011;37953;52.806;18.270;2023-04-24T10:59:45;15.63;;;6.93;;
51927;SDS011;37953;52.806;18.270;2023-04-24T11:02:14;15.85;;;6.97;;
51927;SDS011;37953;52.806;18.270;2023-04-24T11:04:43;20.40;;;7.55;;
51927;SDS011;37953;52.806;18.270;2023-04-24T11:07:10;19.48;;;6.85;;
51927;SDS011;37953;52.806;18.270;2023-04-24T11:09:37;20.65;;;7.57;;
51927;SDS011;37953;52.806;18.270;2023-04-24T11:12:10;16.23;;;6.78;;
51927;SDS011;37953;52.806;18.270;2023-04-24T11:17:31;19.67;;;7.63;;
51927;SDS011;37953;52.806;18.270;2023-04-24T11:20:05;21.20;;;7.88;;
51927;SDS011;37953;52.806;18.270;2023-04-24T11:22:35;15.05;;;7.55;;
51927;SDS011;37953;52.806;18.270;2023-04-24T11:25:03;20.17;;;7.80;;
51927;SDS011;37953;52.806;18.270;2023-04-24T11:27:30;16.45;;;7.68;;
51927;SDS011;37953;52.806;18.270;2023-04-24T11:30:00;17.27;;;7.80;;
51927;SDS011;37953;52.806;18.270;2023-04-24T11:32:41;15.88;;;7.72;;
51927;SDS011;37953;52.806;18.270;2023-04-24T11:35:15;20.40;;;7.40;;
51927;SDS011;37953;52.806;18.270;2023-04-24T11:37:53;19.70;;;7.20;;
51927;SDS011;37953;52.806;18.270;2023-04-24T11:40:20;15.52;;;6.72;;
51927;SDS011;37953;52.806;18.270;2023-04-24T11:42:51;16.95;;;7.10;;
51927;SDS011;37953;52.806;18.270;2023-04-24T11:45:20;16.05;;;7.22;;
51927;SDS011;37953;52.806;18.270;2023-04-24T11:47:48;14.45;;;6.55;;
51927;SDS011;37953;52.806;18.270;2023-04-24T11:50:15;18.60;;;7.13;;
51927;SDS011;37953;52.806;18.270;2023-04-24T11:52:43;19.05;;;7.20;;
51927;SDS011;37953;52.806;18.270;2023-04-24T11:57:48;19.98;;;7.50;;
51927;SDS011;37953;52.806;18.270;2023-04-24T12:00:33;16.83;;;7.10;;
51927;SDS011;37953;52.806;18.270;2023-04-24T12:03:03;15.38;;;6.50;;
51927;SDS011;37953;52.806;18.270;2023-04-24T12:05:36;16.80;;;6.60;;
51927;SDS011;37953;52.806;18.270;2023-04-24T12:08:03;19.30;;;6.47;;
51927;SDS011;37953;52.806;18.270;2023-04-24T12:10:36;18.60;;;5.63;;
51927;SDS011;37953;52.806;18.270;2023-04-24T12:13:02;17.70;;;5.53;;
51927;SDS011;37953;52.806;18.270;2023-04-24T12:15:28;14.75;;;5.25;;
51927;SDS011;37953;52.806;18.270;2023-04-24T12:17:55;16.02;;;5.28;;
51927;SDS011;37953;52.806;18.270;2023-04-24T12:20:28;14.57;;;4.82;;
51927;SDS011;37953;52.806;18.270;2023-04-24T12:22:56;20.05;;;5.00;;
51927;SDS011;37953;52.806;18.270;2023-04-24T12:25:33;13.20;;;4.85;;
51927;SDS011;37953;52.806;18.270;2023-04-24T12:30:29;16.20;;;5.28;;
51927;SDS011;37953;52.806;18.270;2023-04-24T12:33:20;15.60;;;5.10;;
51927;SDS011;37953;52.806;18.270;2023-04-24T12:35:47;13.00;;;4.55;;
51927;SDS011;37953;52.806;18.270;2023-04-24T12:38:23;15.57;;;4.05;;
51927;SDS011;37953;52.806;18.270;2023-04-24T12:41:01;14.77;;;3.92;;
51927;SDS011;37953;52.806;18.270;2023-04-24T12:43:33;12.32;;;3.60;;
51927;SDS011;37953;52.806;18.270;2023-04-24T12:46:26;12.73;;;3.63;;
51927;SDS011;37953;52.806;18.270;2023-04-24T12:48:51;10.85;;;3.85;;
51927;SDS011;37953;52.806;18.270;2023-04-24T12:51:17;15.05;;;4.00;;
51927;SDS011;37953;52.806;18.270;2023-04-24T12:53:43;14.55;;;4.22;;
51927;SDS011;37953;52.806;18.270;2023-04-24T12:56:10;11.07;;;3.85;;
51927;SDS011;37953;52.806;18.270;2023-04-24T12:58:36;14.52;;;4.10;;
51927;SDS011;37953;52.806;18.270;2023-04-24T13:01:02;14.30;;;4.47;;
51927;SDS011;37953;52.806;18.270;2023-04-24T13:03:28;15.48;;;4.88;;
51927;SDS011;37953;52.806;18.270;2023-04-24T13:05:54;16.48;;;4.97;;
51927;SDS011;37953;52.806;18.270;2023-04-24T13:08:20;14.07;;;4.78;;
51927;SDS011;37953;52.806;18.270;2023-04-24T13:10:46;14.90;;;4.75;;
51927;SDS011;37953;52.806;18.270;2023-04-24T13:13:12;15.45;;;5.18;;
51927;SDS011;37953;52.806;18.270;2023-04-24T13:15:38;15.05;;;4.93;;
51927;SDS011;37953;52.806;18.270;2023-04-24T13:18:04;12.13;;;4.78;;
51927;SDS011;37953;52.806;18.270;2023-04-24T13:20:30;16.63;;;5.40;;
51927;SDS011;37953;52.806;18.270;2023-04-24T13:22:56;17.00;;;5.60;;
51927;SDS011;37953;52.806;18.270;2023-04-24T13:25:22;9.00;;;4.95;;
51927;SDS011;37953;52.806;18.270;2023-04-24T13:27:49;16.45;;;5.35;;
51927;SDS011;37953;52.806;18.270;2023-04-24T13:30:15;17.00;;;5.60;;
51927;SDS011;37953;52.806;18.270;2023-04-24T13:32:41;13.73;;;5.28;;
51927;SDS011;37953;52.806;18.270;2023-04-24T13:35:07;16.02;;;5.35;;
51927;SDS011;37953;52.806;18.270;2023-04-24T13:37:33;11.93;;;4.65;;
51927;SDS011;37953;52.806;18.270;2023-04-24T13:39:59;15.88;;;6.03;;
51927;SDS011;37953;52.806;18.270;2023-04-24T13:42:25;14.93;;;6.15;;
51927;SDS011;37953;52.806;18.270;2023-04-24T13:44:51;13.85;;;5.90;;
51927;SDS011;37953;52.806;18.270;2023-04-24T13:47:17;13.40;;;6.40;;
51927;SDS011;37953;52.806;18.270;2023-04-24T13:49:43;16.42;;;6.53;;
51927;SDS011;37953;52.806;18.270;2023-04-24T13:52:09;19.30;;;5.97;;
51927;SDS011;37953;52.806;18.270;2023-04-24T13:54:35;15.43;;;6.50;;
51927;SDS011;37953;52.806;18.270;2023-04-24T13:57:02;13.05;;;5.60;;
51927;SDS011;37953;52.806;18.270;2023-04-24T13:59:29;13.40;;;5.60;;
51927;SDS011;37953;52.806;18.270;2023-04-24T14:01:55;12.95;;;5.40;;
51927;SDS011;37953;52.806;18.270;2023-04-24T14:04:21;14.88;;;5.30;;
51927;SDS011;37953;52.806;18.270;2023-04-24T14:06:47;14.05;;;5.32;;
51927;SDS011;37953;52.806;18.270;2023-04-24T14:09:12;11.23;;;4.60;;
51927;SDS011;37953;52.806;18.270;2023-04-24T14:11:39;14.88;;;5.30;;
51927;SDS011;37953;52.806;18.270;2023-04-24T14:14:04;11.25;;;4.75;;
51927;SDS011;37953;52.806;18.270;2023-04-24T14:16:31;14.63;;;4.82;;
51927;SDS011;37953;52.806;18.270;2023-04-24T14:18:57;13.50;;;5.18;;
51927;SDS011;37953;52.806;18.270;2023-04-24T14:21:23;18.20;;;4.85;;
51927;SDS011;37953;52.806;18.270;2023-04-24T14:23:49;19.98;;;5.10;;
51927;SDS011;37953;52.806;18.270;2023-04-24T14:26:15;17.02;;;4.88;;
51927;SDS011;37953;52.806;18.270;2023-04-24T14:28:47;16.83;;;4.80;;
51927;SDS011;37953;52.806;18.270;2023-04-24T14:31:14;13.80;;;5.15;;
51927;SDS011;37953;52.806;18.270;2023-04-24T14:33:39;12.80;;;5.00;;